Time,TemperatureF,DewpointF,PressureIn,WindDirection,WindDirectionDegrees,WindSpeedMPH,WindSpeedGustMPH,Humidity,HourlyPrecipIn,Conditions,Clouds,dailyrainin,SoftwareType,DateUTC
2013-07-10 00:11:00,74.0,72.0,29.79,West,262,1.0,2.0,95,0.00,,,0.05,,2013-07-10 04:11:00,
2013-07-10 00:33:00,74.0,72.0,29.79,West,262,0.0,0.0,95,0.00,,,0.05,,2013-07-10 04:33:00,
2013-07-10 00:43:00,74.0,73.0,29.78,WNW,282,0.0,2.0,96,0.00,,,0.05,,2013-07-10 04:43:00,
2013-07-10 00:52:00,74.0,73.0,29.78,WNW,282,0.0,2.0,96,0.00,,,0.05,,2013-07-10 04:52:00,
2013-07-10 01:32:00,74.0,73.0,29.75,WSW,257,0.0,3.0,96,0.00,,,0.05,,2013-07-10 05:32:00,
2013-07-10 01:42:00,74.0,73.0,29.75,West,274,0.0,2.0,96,0.00,,,0.05,,2013-07-10 05:42:00,
2013-07-10 01:52:00,74.0,73.0,29.74,WSW,249,2.0,3.0,96,0.00,,,0.05,,2013-07-10 05:52:00,
2013-07-10 02:01:00,74.0,73.0,29.73,SW,223,1.0,2.0,96,0.00,,,0.05,,2013-07-10 06:01:00,
2013-07-10 02:11:00,74.0,73.0,29.73,SW,223,1.0,2.0,96,0.00,,,0.05,,2013-07-10 06:11:00,
2013-07-10 02:32:00,74.0,73.0,29.73,West,265,2.0,3.0,96,0.00,,,0.05,,2013-07-10 06:32:00,
2013-07-10 02:42:00,74.0,73.0,29.72,SW,229,2.0,4.0,96,0.00,,,0.05,,2013-07-10 06:42:00,
2013-07-10 02:52:00,74.0,73.0,29.72,West,273,0.0,3.0,96,0.00,,,0.05,,2013-07-10 06:52:00,
2013-07-10 03:01:00,74.0,73.0,29.71,SW,225,0.0,3.0,96,0.00,,,0.05,,2013-07-10 07:01:00,
2013-07-10 03:12:00,74.0,73.0,29.71,WSW,257,3.0,5.0,96,0.00,,,0.05,,2013-07-10 07:12:00,
2013-07-10 03:22:00,74.0,73.0,29.70,WSW,254,1.0,3.0,96,0.00,,,0.05,,2013-07-10 07:22:00,
2013-07-10 03:33:00,74.0,73.0,29.70,WSW,257,0.0,4.0,96,0.00,,,0.05,,2013-07-10 07:33:00,
2013-07-10 03:43:00,74.0,73.0,29.70,West,281,2.0,5.0,96,0.00,,,0.05,,2013-07-10 07:43:00,
2013-07-10 03:53:00,74.0,73.0,29.70,WSW,257,0.0,5.0,96,0.00,,,0.05,,2013-07-10 07:53:00,
2013-07-10 04:01:00,74.0,73.0,29.70,West,265,0.0,4.0,96,0.00,,,0.05,,2013-07-10 08:01:00,
2013-07-10 04:11:00,75.0,74.0,29.71,WSW,252,0.0,6.0,96,0.00,,,0.05,,2013-07-10 08:11:00,
2013-07-10 04:33:00,74.0,72.0,29.70,WSW,249,0.0,2.0,95,0.00,,,0.05,,2013-07-10 08:33:00,
2013-07-10 04:42:00,74.0,72.0,29.71,West,261,0.0,3.0,95,0.00,,,0.05,,2013-07-10 08:42:00,
2013-07-10 04:53:00,74.0,72.0,29.71,West,261,0.0,3.0,95,0.00,,,0.05,,2013-07-10 08:53:00,
2013-07-10 05:02:00,74.0,72.0,29.71,West,261,0.0,3.0,95,0.00,,,0.05,,2013-07-10 09:02:00,
2013-07-10 05:12:00,74.0,72.0,29.71,West,279,0.0,3.0,95,0.00,,,0.05,,2013-07-10 09:12:00,
2013-07-10 05:22:00,74.0,72.0,29.71,WSW,240,1.0,6.0,95,0.00,,,0.05,,2013-07-10 09:22:00,
2013-07-10 05:32:00,74.0,72.0,29.71,WSW,240,1.0,6.0,95,0.00,,,0.05,,2013-07-10 09:32:00,
2013-07-10 05:42:00,74.0,72.0,29.72,West,263,0.0,3.0,95,0.00,,,0.05,,2013-07-10 09:42:00,
2013-07-10 05:52:00,74.0,72.0,29.72,West,263,0.0,3.0,95,0.00,,,0.05,,2013-07-10 09:52:00,
2013-07-10 06:01:00,74.0,72.0,29.72,West,263,0.0,3.0,95,0.00,,,0.05,,2013-07-10 10:01:00,
2013-07-10 06:13:00,74.0,72.0,29.72,West,263,0.0,3.0,95,0.00,,,0.05,,2013-07-10 10:13:00,
2013-07-10 06:51:00,-999.0,-99.9,29.73,WSW,246,1.0,3.0,-999,-99.99,,,-99.99,,2013-07-10 10:51:00,
2013-07-10 07:00:00,-999.0,-99.9,29.73,WSW,246,1.0,3.0,-999,-99.99,,,-99.99,,2013-07-10 11:00:00,
2013-07-10 07:11:00,73.0,71.0,29.74,WSW,257,0.0,5.0,94,0.00,,,0.05,,2013-07-10 11:11:00,
2013-07-10 07:23:00,73.0,71.0,29.74,WNW,283,0.0,5.0,94,0.00,,,0.05,,2013-07-10 11:23:00,
2013-07-10 07:43:00,74.0,72.0,29.74,WSW,257,0.0,3.0,93,0.00,,,0.05,,2013-07-10 11:43:00,
2013-07-10 07:52:00,74.0,72.0,29.74,WSW,257,3.0,5.0,92,0.00,,,0.05,,2013-07-10 11:52:00,
2013-07-10 08:11:00,74.0,71.0,29.74,West,263,0.0,1.0,91,0.00,,,0.05,,2013-07-10 12:11:00,
2013-07-10 08:33:00,76.0,73.0,29.74,West,259,0.0,5.0,89,0.00,,,0.05,,2013-07-10 12:33:00,
2013-07-10 08:43:00,76.0,72.0,29.73,WSW,257,0.0,6.0,88,0.00,,,0.05,,2013-07-10 12:43:00,
2013-07-10 08:53:00,76.0,72.0,29.73,WSW,251,1.0,1.0,88,0.00,,,0.05,,2013-07-10 12:53:00,
2013-07-10 09:11:00,77.0,73.0,29.73,West,275,0.0,5.0,88,0.00,,,0.05,,2013-07-10 13:11:00,
2013-07-10 09:32:00,77.0,73.0,29.73,SSW,203,0.0,4.0,87,0.00,,,0.05,,2013-07-10 13:32:00,
2013-07-10 09:43:00,77.0,72.0,29.72,West,267,0.0,5.0,85,0.00,,,0.05,,2013-07-10 13:43:00,
2013-07-10 09:52:00,77.0,72.0,29.72,WSW,256,0.0,6.0,85,0.00,,,0.05,,2013-07-10 13:52:00,
2013-07-10 10:01:00,78.0,72.0,29.72,WSW,250,0.0,5.0,83,0.00,,,0.05,,2013-07-10 14:01:00,
2013-07-10 10:11:00,79.0,73.0,29.72,WSW,246,4.0,7.0,82,0.00,,,0.05,,2013-07-10 14:11:00,
2013-07-10 10:43:00,80.0,73.0,29.73,West,263,0.0,4.0,79,0.00,,,0.05,,2013-07-10 14:43:00,
2013-07-10 10:53:00,80.0,73.0,29.73,West,259,0.0,6.0,79,0.00,,,0.05,,2013-07-10 14:53:00,
2013-07-10 11:11:00,80.0,72.0,29.73,WSW,241,0.0,7.0,78,0.00,,,0.05,,2013-07-10 15:11:00,
2013-07-10 11:22:00,80.0,72.0,29.73,West,272,3.0,9.0,77,0.00,,,0.05,,2013-07-10 15:22:00,
2013-07-10 11:52:00,81.0,73.0,29.72,West,271,0.0,4.0,78,0.00,,,0.05,,2013-07-10 15:52:00,
2013-07-10 12:01:00,80.0,72.0,29.72,WSW,242,3.0,6.0,77,0.00,,,0.05,,2013-07-10 16:01:00,
2013-07-10 12:22:00,81.0,72.0,29.72,East,80,4.0,6.0,75,0.00,,,0.05,,2013-07-10 16:22:00,
2013-07-10 12:33:00,82.0,72.0,29.72,West,262,2.0,11.0,72,0.00,,,0.05,,2013-07-10 16:33:00,
2013-07-10 12:44:00,81.0,72.0,29.72,WNW,294,0.0,1.0,74,0.00,,,0.05,,2013-07-10 16:44:00,
2013-07-10 12:53:00,81.0,72.0,29.72,WNW,294,0.0,1.0,74,0.00,,,0.05,,2013-07-10 16:53:00,
2013-07-10 13:11:00,81.0,69.0,29.72,West,267,0.0,7.0,68,0.00,,,0.05,,2013-07-10 17:11:00,
2013-07-10 13:23:00,81.0,69.0,29.72,West,267,0.0,7.0,68,0.00,,,0.05,,2013-07-10 17:23:00,
2013-07-10 13:32:00,82.0,70.0,29.73,NNW,329,0.0,5.0,68,0.00,,,0.05,,2013-07-10 17:32:00,
2013-07-10 13:43:00,82.0,71.0,29.73,WSW,245,2.0,5.0,69,0.00,,,0.05,,2013-07-10 17:43:00,
2013-07-10 13:52:00,82.0,71.0,29.73,WSW,245,2.0,5.0,69,0.00,,,0.05,,2013-07-10 17:52:00,
2013-07-10 14:53:00,81.0,69.0,29.75,West,260,5.0,11.0,67,0.00,,,0.05,,2013-07-10 18:53:00,
2013-07-10 15:01:00,81.0,68.0,29.75,WSW,250,6.0,10.0,65,0.00,,,0.05,,2013-07-10 19:01:00,
2013-07-10 15:11:00,81.0,68.0,29.75,WSW,250,6.0,10.0,65,0.00,,,0.05,,2013-07-10 19:11:00,
2013-07-10 15:22:00,80.0,66.0,29.75,WNW,296,0.0,9.0,62,0.00,,,0.05,,2013-07-10 19:22:00,
2013-07-10 15:32:00,80.0,67.0,29.75,NNW,338,0.0,9.0,65,0.00,,,0.05,,2013-07-10 19:32:00,
2013-07-10 15:42:00,80.0,66.0,29.76,West,260,2.0,9.0,62,0.00,,,0.05,,2013-07-10 19:42:00,
2013-07-10 15:53:00,80.0,66.0,29.76,West,260,2.0,9.0,62,0.00,,,0.05,,2013-07-10 19:53:00,
2013-07-10 16:01:00,80.0,66.0,29.76,SSE,167,0.0,6.0,63,0.00,,,0.05,,2013-07-10 20:01:00,
2013-07-10 16:22:00,79.0,64.0,29.78,SSW,210,0.0,6.0,61,0.00,,,0.05,,2013-07-10 20:22:00,
2013-07-10 16:32:00,79.0,64.0,29.78,SSW,210,0.0,6.0,61,0.00,,,0.05,,2013-07-10 20:32:00,
2013-07-10 16:52:00,79.0,63.0,29.78,SW,231,0.0,4.0,59,0.00,,,0.05,,2013-07-10 20:52:00,
2013-07-10 17:01:00,79.0,63.0,29.78,WSW,250,0.0,7.0,59,0.00,,,0.05,,2013-07-10 21:01:00,
2013-07-10 17:32:00,79.0,61.0,29.78,NNW,344,0.0,9.0,55,0.00,,,0.05,,2013-07-10 21:32:00,
2013-07-10 17:42:00,79.0,62.0,29.78,NE,36,4.0,5.0,56,0.00,,,0.05,,2013-07-10 21:42:00,
2013-07-10 17:52:00,79.0,62.0,29.78,NE,36,4.0,5.0,56,0.00,,,0.05,,2013-07-10 21:52:00,
2013-07-10 18:01:00,79.0,61.0,29.78,South,186,0.0,7.0,54,0.00,,,0.05,,2013-07-10 22:01:00,
2013-07-10 18:43:00,76.0,60.0,29.79,SW,232,0.0,4.0,57,0.00,,,0.05,,2013-07-10 22:43:00,
2013-07-10 18:53:00,76.0,61.0,29.79,East,92,0.0,2.0,59,0.00,,,0.05,,2013-07-10 22:53:00,
2013-07-10 19:01:00,76.0,59.0,29.80,NW,326,1.0,5.0,56,0.00,,,0.05,,2013-07-10 23:01:00,
2013-07-10 19:11:00,76.0,60.0,29.80,SE,145,2.0,5.0,57,0.00,,,0.05,,2013-07-10 23:11:00,
2013-07-10 19:22:00,75.0,59.0,29.80,ESE,105,0.0,8.0,57,0.00,,,0.05,,2013-07-10 23:22:00,
2013-07-10 19:32:00,75.0,59.0,29.80,NNW,345,1.0,7.0,58,0.00,,,0.03,,2013-07-10 23:32:00,
2013-07-10 19:43:00,75.0,59.0,29.80,NNW,345,1.0,7.0,58,0.00,,,0.03,,2013-07-10 23:43:00,
2013-07-10 19:52:00,74.0,60.0,29.81,East,89,0.0,4.0,61,0.00,,,0.00,,2013-07-10 23:52:00,
2013-07-10 20:01:00,74.0,60.0,29.81,WSW,257,2.0,4.0,61,0.00,,,0.00,,2013-07-11 00:01:00,
2013-07-10 20:11:00,74.0,60.0,29.82,SSW,207,0.0,5.0,62,0.00,,,0.00,,2013-07-11 00:11:00,
2013-07-10 20:22:00,73.0,59.0,29.82,West,275,0.0,2.0,62,0.00,,,0.00,,2013-07-11 00:22:00,
2013-07-10 20:32:00,73.0,59.0,29.82,South,187,0.0,1.0,62,0.00,,,0.00,,2013-07-11 00:32:00,
2013-07-10 20:42:00,73.0,59.0,29.83,SSW,199,0.0,4.0,62,0.00,,,0.00,,2013-07-11 00:42:00,
2013-07-10 20:52:00,73.0,59.0,29.83,West,273,1.0,6.0,62,0.00,,,0.00,,2013-07-11 00:52:00,
2013-07-10 21:01:00,72.0,58.0,29.84,NE,50,0.0,4.0,62,0.00,,,0.00,,2013-07-11 01:01:00,
2013-07-10 21:11:00,72.0,59.0,29.84,ENE,63,0.0,1.0,63,0.00,,,0.00,,2013-07-11 01:11:00,
2013-07-10 21:22:00,71.0,58.0,29.84,ENE,63,0.0,0.0,64,0.00,,,0.00,,2013-07-11 01:22:00,
2013-07-10 21:32:00,70.0,59.0,29.85,ENE,63,0.0,0.0,68,0.00,,,0.00,,2013-07-11 01:32:00,
2013-07-10 21:43:00,69.0,59.0,29.86,ENE,63,0.0,0.0,70,0.00,,,0.00,,2013-07-11 01:43:00,
2013-07-10 21:52:00,69.0,59.0,29.86,ENE,63,0.0,0.0,70,0.00,,,0.00,,2013-07-11 01:52:00,
2013-07-10 22:02:00,69.0,59.0,29.86,ENE,63,0.0,0.0,70,0.00,,,0.00,,2013-07-11 02:02:00,
2013-07-10 22:11:00,67.0,59.0,29.88,East,84,0.0,0.0,76,0.00,,,0.00,,2013-07-11 02:11:00,
2013-07-10 22:43:00,65.0,59.0,29.89,East,84,0.0,0.0,81,0.00,,,0.00,,2013-07-11 02:43:00,
2013-07-10 23:02:00,64.0,59.0,29.90,East,84,0.0,0.0,83,0.00,,,0.00,,2013-07-11 03:02:00,
2013-07-10 23:22:00,63.0,58.0,29.90,East,84,0.0,0.0,84,0.00,,,0.00,,2013-07-11 03:22:00,
2013-07-10 23:42:00,62.0,58.0,29.90,East,84,0.0,0.0,88,0.00,,,0.00,,2013-07-11 03:42:00,
2013-07-10 23:52:00,62.0,58.0,29.90,East,84,0.0,0.0,88,0.00,,,0.00,,2013-07-11 03:52:00,